Nearby METAR Reports

 

KSJC - San Jose, California, USA
Distance from station: NE 9mi, 14km
Updated: 06,05/2020 10:53am
Partly cloudy
Partly cloudy
 Wind from SE
Wind: SE 10 mph , 17 km/h
Temperature: 64°F , 18°C
Dew Point: 54°F , 12°C
Humidity: 68%
Barometer: 29.79 inHg , 1008.8 hPa
Clouds: Partly cloudy
Visibility: 10 miles , 16 km
Cloud details: Few Clouds 1300 ft
Few Clouds 2500 ft
Partly cloudy 6500 ft
2020/06/05 14:53 KSJC 051453Z 14009KT 10SM FEW013 FEW025 SCT065 18/12 A2979 RMK AO2 SLP088 T01780117 51012
KNUQ - Moffett Nas/Mtn, California, USA
Distance from station: N 9mi, 14km
Updated: 06,05/2020 9:55am
NOT Current
Clear
Clear
 Wind from ESE
Wind: ESE 3 mph , 6 km/h
Temperature: 61°F , 16°C
Dew Point: 52°F , 11°C
Humidity: 72%
Barometer: 29.78 inHg , 1008.5 hPa
Clouds: Clear
Visibility: 10 miles , 16 km
2020/06/05 13:55 KNUQ 051355Z AUTO 12003KT 10SM CLR 16/11 A2978 RMK AO2
KPAO - Palo Alto, California, USA
Distance from station: NNW 14mi, 23km
Updated: 06,05/2020 11:47am
Few Clouds
Few Clouds
 Wind from varies
Wind: varies 6 mph , 9 km/h
Temperature: 64°F , 18°C
Dew Point: 50°F , 10°C
Humidity: 60%
Barometer: 29.81 inHg , 1009.5 hPa
Clouds: Few Clouds
Visibility: 10 miles , 16 km
Cloud details: Few Clouds 2000 ft
2020/06/05 15:47 KPAO 051547Z VRB05KT 10SM FEW020 18/10 A2981
 
KRHV - San Jose/Reid, California, USA
Distance from station: ENE 12mi, 19km
Updated: 06,05/2020 10:53am
Partly cloudy
Partly cloudy
 Wind from SSE
Wind: SSE 8 mph , 13 km/h
Temperature: 64°F , 18°C
Dew Point: 54°F , 12°C
Humidity: 68%
Barometer: 29.80 inHg , 1009.1 hPa
Clouds: Partly cloudy
Visibility: 10 miles , 16 km
Cloud details: Few Clouds 1500 ft
Partly cloudy 2500 ft
2020/06/05 14:53 KRHV 051453Z 16007KT 10SM FEW015 SCT025 18/12 A2980
KOAK - Oakland, California, USA
Distance from station: NNW 31mi, 50km
Updated: 06,05/2020 11:28am
Haze, Mostly cloudy
Haze, Mostly cloudy
 Wind from WSW
Wind: WSW 16 mph , 26 km/h
Temperature: 59°F , 15°C
Dew Point: 52°F , 11°C
Humidity: 77%
Barometer: 29.81 inHg , 1009.5 hPa
Summary: Haze
Clouds: Mostly cloudy
Visibility: 5 miles , 8 km
Cloud details: Mostly cloudy 1400 ft
2020/06/05 15:28 KOAK 051528Z 24014KT 5SM HZ BKN014 15/11 A2981 RMK AO2 T01500106
KSQL - San Carlos Airpo, California, USA
Distance from station: NW 21mi, 34km
Updated: 06,05/2020 11:47am
Clear
Clear
 Wind from WSW
Wind: WSW 9 mph , 15 km/h
Temperature: 63°F , 17°C
Dew Point: 50°F , 10°C
Humidity: 64%
Barometer: 29.82 inHg , 1009.8 hPa
Clouds: Clear
Visibility: 10 miles , 16 km
2020/06/05 15:47 KSQL 051547Z 24008KT 10SM SKC 17/10 A2982
 
KSFO - San Francisco, California, USA
Distance from station: NW 30mi, 49km
Updated: 06,05/2020 10:56am
Mostly cloudy
Mostly cloudy
 Wind from WSW
Wind: WSW 14 mph , 22 km/h
Temperature: 55°F , 13°C
Dew Point: 48°F , 9°C
Humidity: 77%
Barometer: 29.81 inHg , 1009.5 hPa
Clouds: Mostly cloudy
Visibility: 10 miles , 16 km
Cloud details: Few Clouds 800 ft
Partly cloudy 1000 ft
Mostly cloudy 1800 ft
2020/06/05 14:56 KSFO 051456Z 25012KT 10SM FEW008 SCT010 BKN018 13/09 A2981 RMK AO2 SLP093 T01330094 53014
KE16 - San Martin, California, USA
Distance from station: ESE 27mi, 43km
Updated: 06,05/2020 11:25am
Mostly cloudy
Mostly cloudy
 Wind from SSE
Wind: SSE 10 mph , 17 km/h
Temperature: 63°F , 17°C
Dew Point: 54°F , 12°C
Humidity: 73%
Barometer: 29.83 inHg , 1010.2 hPa
Clouds: Mostly cloudy
Visibility: 10 miles , 16 km
Cloud details: Mostly cloudy 2000 ft
2020/06/05 15:25 KE16 051525Z AUTO 16009KT 10SM BKN020 17/12 A2983 RMK AO2 PWINO PNO
KWVI - Watsonville, California, USA
Distance from station: SSE 27mi, 44km
Updated: 06,05/2020 11:34am
Overcast
Overcast
 Wind from calm
Wind: Calm
Temperature: 57°F , 14°C
Dew Point: 55°F , 13°C
Humidity: 94%
Barometer: 29.84 inHg , 1010.5 hPa
Clouds: Overcast
Visibility: 8 miles , 13 km
Cloud details: Partly cloudy 600 ft
Overcast 1300 ft
2020/06/05 15:34 KWVI 051534Z AUTO 00000KT 8SM SCT006 OVC013 14/13 A2984 RMK AO2 T01440133
 
KHAF - Half Moon Bay, California, USA
Distance from station: WNW 31mi, 50km
Updated: 06,05/2020 11:40am
Mist, Mostly cloudy
Mist, Mostly cloudy
 Wind from SW
Wind: SW 5 mph , 7 km/h
Temperature: 55°F , 13°C
Dew Point: 50°F , 10°C
Humidity: 82%
Barometer: 29.85 inHg , 1010.8 hPa
Summary: Mist
Clouds: Mostly cloudy
Visibility: 4 miles , 6 km
Cloud details: Mostly cloudy 1200 ft
2020/06/05 15:40 KHAF 051540Z AUTO 22004KT 4SM BR BKN012 13/10 A2985 RMK AO2
KHWD - Hayward, California, USA
Distance from station: N 28mi, 44km
Updated: 06,05/2020 11:17am
Few Clouds
Few Clouds
 Wind from W
Wind: W 10 mph , 17 km/h
Temperature: 61°F , 16°C
Dew Point: 50°F , 10°C
Humidity: 68%
Barometer: 29.80 inHg , 1009.1 hPa
Clouds: Few Clouds
Visibility: 10 miles , 16 km
Cloud details: Few Clouds 1600 ft
2020/06/05 15:17 KHWD 051517Z 26009KT 10SM FEW016 16/10 A2980 RMK AO2 T01610100
KLVK - Livermore, California, USA
Distance from station: NNE 31mi, 51km
Updated: 06,05/2020 11:24am
Few Clouds
Few Clouds
 Wind from W
Wind: W 13 mph , 20 km/h
Temperature: 63°F , 17°C
Dew Point: 52°F , 11°C
Humidity: 68%
Barometer: 29.78 inHg , 1008.5 hPa
Clouds: Few Clouds
Visibility: 10 miles , 16 km
Cloud details: Few Clouds 2100 ft
2020/06/05 15:24 KLVK 051524Z AUTO 28011KT 10SM FEW021 17/11 A2978 RMK AO2 T01670106